sensor_id;sensor_type;location;lat;lon;timestamp;P1;durP1;ratioP1;P2;durP2;ratioP2
23668;SDS011;12011;47.422;15.018;2022-10-16T00:00:39;4.24;;;4.19;;
23668;SDS011;12011;47.422;15.018;2022-10-16T00:03:11;4.07;;;4.02;;
23668;SDS011;12011;47.422;15.018;2022-10-16T00:05:41;3.94;;;3.90;;
23668;SDS011;12011;47.422;15.018;2022-10-16T00:08:12;3.66;;;3.63;;
23668;SDS011;12011;47.422;15.018;2022-10-16T00:10:42;4.43;;;4.42;;
23668;SDS011;12011;47.422;15.018;2022-10-16T00:13:14;4.14;;;4.07;;
23668;SDS011;12011;47.422;15.018;2022-10-16T00:15:47;3.82;;;3.78;;
23668;SDS011;12011;47.422;15.018;2022-10-16T00:18:16;4.01;;;3.97;;
23668;SDS011;12011;47.422;15.018;2022-10-16T00:20:46;4.02;;;4.00;;
23668;SDS011;12011;47.422;15.018;2022-10-16T00:23:35;4.16;;;4.11;;
23668;SDS011;12011;47.422;15.018;2022-10-16T00:26:07;4.51;;;4.46;;
23668;SDS011;12011;47.422;15.018;2022-10-16T00:28:44;4.50;;;4.41;;
23668;SDS011;12011;47.422;15.018;2022-10-16T00:31:15;4.51;;;4.45;;
23668;SDS011;12011;47.422;15.018;2022-10-16T00:33:47;5.12;;;5.05;;
23668;SDS011;12011;47.422;15.018;2022-10-16T00:36:18;4.84;;;4.75;;
23668;SDS011;12011;47.422;15.018;2022-10-16T00:38:50;5.02;;;4.94;;
23668;SDS011;12011;47.422;15.018;2022-10-16T00:41:22;4.90;;;4.87;;
23668;SDS011;12011;47.422;15.018;2022-10-16T00:43:56;4.87;;;4.84;;
23668;SDS011;12011;47.422;15.018;2022-10-16T00:46:29;4.62;;;4.56;;
23668;SDS011;12011;47.422;15.018;2022-10-16T00:49:06;4.97;;;4.92;;
23668;SDS011;12011;47.422;15.018;2022-10-16T00:51:40;4.82;;;4.78;;
23668;SDS011;12011;47.422;15.018;2022-10-16T00:54:13;5.26;;;5.19;;
23668;SDS011;12011;47.422;15.018;2022-10-16T00:56:48;5.18;;;5.10;;
23668;SDS011;12011;47.422;15.018;2022-10-16T00:59:22;5.85;;;5.77;;
23668;SDS011;12011;47.422;15.018;2022-10-16T01:01:56;4.39;;;4.31;;
23668;SDS011;12011;47.422;15.018;2022-10-16T01:04:28;4.43;;;4.35;;
23668;SDS011;12011;47.422;15.018;2022-10-16T01:07:06;7.05;;;6.90;;
23668;SDS011;12011;47.422;15.018;2022-10-16T01:09:54;17.33;;;16.14;;
23668;SDS011;12011;47.422;15.018;2022-10-16T01:12:40;15.76;;;14.10;;
23668;SDS011;12011;47.422;15.018;2022-10-16T01:15:17;8.18;;;7.48;;
23668;SDS011;12011;47.422;15.018;2022-10-16T01:17:57;4.58;;;4.36;;
23668;SDS011;12011;47.422;15.018;2022-10-16T01:20:37;4.02;;;3.87;;
23668;SDS011;12011;47.422;15.018;2022-10-16T01:23:18;3.37;;;3.32;;
23668;SDS011;12011;47.422;15.018;2022-10-16T01:26:01;4.32;;;4.25;;
23668;SDS011;12011;47.422;15.018;2022-10-16T01:28:49;4.04;;;4.00;;
23668;SDS011;12011;47.422;15.018;2022-10-16T01:31:26;3.63;;;3.61;;
23668;SDS011;12011;47.422;15.018;2022-10-16T01:34:02;3.71;;;3.69;;
23668;SDS011;12011;47.422;15.018;2022-10-16T01:36:41;3.21;;;3.19;;
23668;SDS011;12011;47.422;15.018;2022-10-16T01:39:18;3.32;;;3.30;;
23668;SDS011;12011;47.422;15.018;2022-10-16T01:41:56;3.58;;;3.53;;
23668;SDS011;12011;47.422;15.018;2022-10-16T01:44:37;3.56;;;3.53;;
23668;SDS011;12011;47.422;15.018;2022-10-16T01:47:09;3.39;;;3.36;;
23668;SDS011;12011;47.422;15.018;2022-10-16T01:49:44;3.54;;;3.51;;
23668;SDS011;12011;47.422;15.018;2022-10-16T01:52:15;3.41;;;3.39;;
23668;SDS011;12011;47.422;15.018;2022-10-16T01:54:50;3.69;;;3.67;;
23668;SDS011;12011;47.422;15.018;2022-10-16T01:57:24;3.44;;;3.37;;
23668;SDS011;12011;47.422;15.018;2022-10-16T02:00:00;3.46;;;3.39;;
23668;SDS011;12011;47.422;15.018;2022-10-16T02:02:40;3.66;;;3.61;;
23668;SDS011;12011;47.422;15.018;2022-10-16T02:05:18;3.08;;;3.03;;
23668;SDS011;12011;47.422;15.018;2022-10-16T02:07:54;3.16;;;3.13;;
23668;SDS011;12011;47.422;15.018;2022-10-16T02:10:24;3.36;;;3.31;;
23668;SDS011;12011;47.422;15.018;2022-10-16T02:12:57;3.07;;;3.04;;
23668;SDS011;12011;47.422;15.018;2022-10-16T02:15:36;3.04;;;3.02;;
23668;SDS011;12011;47.422;15.018;2022-10-16T02:18:05;3.21;;;3.18;;
23668;SDS011;12011;47.422;15.018;2022-10-16T02:20:40;2.99;;;2.94;;
23668;SDS011;12011;47.422;15.018;2022-10-16T02:23:21;3.38;;;3.33;;
23668;SDS011;12011;47.422;15.018;2022-10-16T02:26:00;3.32;;;3.29;;
23668;SDS011;12011;47.422;15.018;2022-10-16T02:28:37;3.17;;;3.14;;
23668;SDS011;12011;47.422;15.018;2022-10-16T02:31:16;3.51;;;3.46;;
23668;SDS011;12011;47.422;15.018;2022-10-16T02:33:54;3.48;;;3.44;;
23668;SDS011;12011;47.422;15.018;2022-10-16T02:36:30;3.31;;;3.29;;
23668;SDS011;12011;47.422;15.018;2022-10-16T02:39:03;3.45;;;3.43;;
23668;SDS011;12011;47.422;15.018;2022-10-16T02:41:34;3.32;;;3.29;;
23668;SDS011;12011;47.422;15.018;2022-10-16T02:44:04;3.14;;;3.11;;
23668;SDS011;12011;47.422;15.018;2022-10-16T02:46:36;3.35;;;3.32;;
23668;SDS011;12011;47.422;15.018;2022-10-16T02:49:06;3.37;;;3.35;;
23668;SDS011;12011;47.422;15.018;2022-10-16T02:51:35;3.20;;;3.16;;
23668;SDS011;12011;47.422;15.018;2022-10-16T02:54:05;3.59;;;3.52;;
23668;SDS011;12011;47.422;15.018;2022-10-16T02:56:34;3.35;;;3.28;;
23668;SDS011;12011;47.422;15.018;2022-10-16T02:59:04;3.26;;;3.20;;
23668;SDS011;12011;47.422;15.018;2022-10-16T03:01:36;2.93;;;2.88;;
23668;SDS011;12011;47.422;15.018;2022-10-16T03:04:06;3.10;;;3.07;;
23668;SDS011;12011;47.422;15.018;2022-10-16T03:06:36;3.22;;;3.18;;
23668;SDS011;12011;47.422;15.018;2022-10-16T03:09:05;3.05;;;3.01;;
23668;SDS011;12011;47.422;15.018;2022-10-16T03:11:35;3.86;;;3.84;;
23668;SDS011;12011;47.422;15.018;2022-10-16T03:14:04;4.09;;;4.05;;
23668;SDS011;12011;47.422;15.018;2022-10-16T03:16:37;4.17;;;4.11;;
23668;SDS011;12011;47.422;15.018;2022-10-16T03:19:06;4.50;;;4.45;;
23668;SDS011;12011;47.422;15.018;2022-10-16T03:21:36;4.04;;;3.94;;
23668;SDS011;12011;47.422;15.018;2022-10-16T03:24:06;4.03;;;3.94;;
23668;SDS011;12011;47.422;15.018;2022-10-16T03:26:37;4.22;;;4.16;;
23668;SDS011;12011;47.422;15.018;2022-10-16T03:29:06;3.90;;;3.83;;
23668;SDS011;12011;47.422;15.018;2022-10-16T03:31:41;4.58;;;4.52;;
23668;SDS011;12011;47.422;15.018;2022-10-16T03:34:14;4.33;;;4.27;;
23668;SDS011;12011;47.422;15.018;2022-10-16T03:36:43;4.31;;;4.27;;
23668;SDS011;12011;47.422;15.018;2022-10-16T03:39:13;3.71;;;3.65;;
23668;SDS011;12011;47.422;15.018;2022-10-16T03:41:43;4.73;;;4.70;;
23668;SDS011;12011;47.422;15.018;2022-10-16T03:44:12;5.28;;;5.20;;
23668;SDS011;12011;47.422;15.018;2022-10-16T03:46:45;4.81;;;4.68;;
23668;SDS011;12011;47.422;15.018;2022-10-16T03:49:14;5.08;;;5.00;;
23668;SDS011;12011;47.422;15.018;2022-10-16T03:51:44;5.01;;;4.93;;
23668;SDS011;12011;47.422;15.018;2022-10-16T03:54:13;5.06;;;5.01;;
23668;SDS011;12011;47.422;15.018;2022-10-16T03:56:43;5.30;;;5.24;;
23668;SDS011;12011;47.422;15.018;2022-10-16T03:59:12;5.09;;;5.07;;
23668;SDS011;12011;47.422;15.018;2022-10-16T04:01:42;5.19;;;5.18;;
23668;SDS011;12011;47.422;15.018;2022-10-16T04:04:14;5.13;;;5.09;;
23668;SDS011;12011;47.422;15.018;2022-10-16T04:06:43;4.94;;;4.88;;
23668;SDS011;12011;47.422;15.018;2022-10-16T04:09:13;5.09;;;5.04;;
23668;SDS011;12011;47.422;15.018;2022-10-16T04:11:42;4.79;;;4.74;;
23668;SDS011;12011;47.422;15.018;2022-10-16T04:14:12;4.80;;;4.77;;
23668;SDS011;12011;47.422;15.018;2022-10-16T04:16:44;4.30;;;4.29;;
23668;SDS011;12011;47.422;15.018;2022-10-16T04:19:14;4.11;;;4.09;;
23668;SDS011;12011;47.422;15.018;2022-10-16T04:21:44;3.33;;;3.30;;
23668;SDS011;12011;47.422;15.018;2022-10-16T04:24:13;3.46;;;3.42;;
23668;SDS011;12011;47.422;15.018;2022-10-16T04:26:43;3.06;;;3.03;;
23668;SDS011;12011;47.422;15.018;2022-10-16T04:29:12;2.81;;;2.79;;
23668;SDS011;12011;47.422;15.018;2022-10-16T04:31:42;3.13;;;3.11;;
23668;SDS011;12011;47.422;15.018;2022-10-16T04:34:14;3.30;;;3.28;;
23668;SDS011;12011;47.422;15.018;2022-10-16T04:36:43;2.89;;;2.87;;
23668;SDS011;12011;47.422;15.018;2022-10-16T04:39:15;2.66;;;2.64;;
23668;SDS011;12011;47.422;15.018;2022-10-16T04:41:45;2.57;;;2.55;;
23668;SDS011;12011;47.422;15.018;2022-10-16T04:44:15;2.25;;;2.24;;
23668;SDS011;12011;47.422;15.018;2022-10-16T04:46:47;2.63;;;2.61;;
23668;SDS011;12011;47.422;15.018;2022-10-16T04:49:18;2.59;;;2.57;;
23668;SDS011;12011;47.422;15.018;2022-10-16T04:51:48;2.64;;;2.62;;
23668;SDS011;12011;47.422;15.018;2022-10-16T04:54:17;2.11;;;2.10;;
23668;SDS011;12011;47.422;15.018;2022-10-16T04:56:47;2.79;;;2.77;;
23668;SDS011;12011;47.422;15.018;2022-10-16T04:59:19;2.82;;;2.80;;
23668;SDS011;12011;47.422;15.018;2022-10-16T05:01:51;3.28;;;3.26;;
23668;SDS011;12011;47.422;15.018;2022-10-16T05:04:21;3.08;;;3.06;;
23668;SDS011;12011;47.422;15.018;2022-10-16T05:06:51;3.29;;;3.23;;
23668;SDS011;12011;47.422;15.018;2022-10-16T05:09:21;3.01;;;2.96;;
23668;SDS011;12011;47.422;15.018;2022-10-16T05:11:51;3.22;;;3.17;;
23668;SDS011;12011;47.422;15.018;2022-10-16T05:14:20;3.19;;;3.16;;
23668;SDS011;12011;47.422;15.018;2022-10-16T05:16:52;3.51;;;3.48;;
23668;SDS011;12011;47.422;15.018;2022-10-16T05:19:22;3.82;;;3.77;;
23668;SDS011;12011;47.422;15.018;2022-10-16T05:21:52;3.71;;;3.66;;
23668;SDS011;12011;47.422;15.018;2022-10-16T05:24:21;4.44;;;4.37;;
23668;SDS011;12011;47.422;15.018;2022-10-16T05:26:51;5.69;;;5.61;;
23668;SDS011;12011;47.422;15.018;2022-10-16T05:29:21;5.26;;;5.17;;
23668;SDS011;12011;47.422;15.018;2022-10-16T05:31:53;4.47;;;4.40;;
23668;SDS011;12011;47.422;15.018;2022-10-16T05:34:23;4.80;;;4.75;;
23668;SDS011;12011;47.422;15.018;2022-10-16T05:36:52;5.55;;;5.53;;
23668;SDS011;12011;47.422;15.018;2022-10-16T05:39:22;4.98;;;4.94;;
23668;SDS011;12011;47.422;15.018;2022-10-16T05:41:52;5.46;;;5.41;;
23668;SDS011;12011;47.422;15.018;2022-10-16T05:44:21;5.51;;;5.44;;
23668;SDS011;12011;47.422;15.018;2022-10-16T05:46:53;4.97;;;4.95;;
23668;SDS011;12011;47.422;15.018;2022-10-16T05:49:23;5.27;;;5.22;;
23668;SDS011;12011;47.422;15.018;2022-10-16T05:51:53;5.30;;;5.22;;
23668;SDS011;12011;47.422;15.018;2022-10-16T05:54:22;5.25;;;5.18;;
23668;SDS011;12011;47.422;15.018;2022-10-16T05:56:52;5.39;;;5.30;;
23668;SDS011;12011;47.422;15.018;2022-10-16T05:59:21;5.01;;;4.92;;
23668;SDS011;12011;47.422;15.018;2022-10-16T06:01:54;5.39;;;5.32;;
23668;SDS011;12011;47.422;15.018;2022-10-16T06:04:23;5.21;;;5.11;;
23668;SDS011;12011;47.422;15.018;2022-10-16T06:06:53;5.84;;;5.71;;
23668;SDS011;12011;47.422;15.018;2022-10-16T06:09:22;6.04;;;5.93;;
23668;SDS011;12011;47.422;15.018;2022-10-16T06:11:51;5.72;;;5.63;;
23668;SDS011;12011;47.422;15.018;2022-10-16T06:14:24;5.86;;;5.75;;
23668;SDS011;12011;47.422;15.018;2022-10-16T06:16:57;4.75;;;4.69;;
23668;SDS011;12011;47.422;15.018;2022-10-16T06:19:26;4.79;;;4.72;;
23668;SDS011;12011;47.422;15.018;2022-10-16T06:21:57;4.65;;;4.56;;
23668;SDS011;12011;47.422;15.018;2022-10-16T06:24:28;4.31;;;4.25;;
23668;SDS011;12011;47.422;15.018;2022-10-16T06:26:57;4.02;;;4.00;;
23668;SDS011;12011;47.422;15.018;2022-10-16T06:29:27;4.02;;;4.00;;
23668;SDS011;12011;47.422;15.018;2022-10-16T06:31:59;4.09;;;4.06;;
23668;SDS011;12011;47.422;15.018;2022-10-16T06:34:28;3.62;;;3.59;;
23668;SDS011;12011;47.422;15.018;2022-10-16T06:36:58;4.07;;;4.03;;
23668;SDS011;12011;47.422;15.018;2022-10-16T06:39:27;3.81;;;3.77;;
23668;SDS011;12011;47.422;15.018;2022-10-16T06:41:57;3.84;;;3.82;;
23668;SDS011;12011;47.422;15.018;2022-10-16T06:44:34;4.56;;;4.48;;
23668;SDS011;12011;47.422;15.018;2022-10-16T06:47:07;4.15;;;4.06;;
23668;SDS011;12011;47.422;15.018;2022-10-16T06:49:36;4.17;;;4.08;;
23668;SDS011;12011;47.422;15.018;2022-10-16T06:52:06;4.68;;;4.56;;
23668;SDS011;12011;47.422;15.018;2022-10-16T06:54:35;4.56;;;4.44;;
23668;SDS011;12011;47.422;15.018;2022-10-16T06:57:05;4.68;;;4.56;;
23668;SDS011;12011;47.422;15.018;2022-10-16T06:59:34;4.74;;;4.64;;
23668;SDS011;12011;47.422;15.018;2022-10-16T07:02:07;5.18;;;5.07;;
23668;SDS011;12011;47.422;15.018;2022-10-16T07:04:37;4.67;;;4.56;;
23668;SDS011;12011;47.422;15.018;2022-10-16T07:07:07;5.54;;;5.45;;
23668;SDS011;12011;47.422;15.018;2022-10-16T07:09:36;4.74;;;4.65;;
23668;SDS011;12011;47.422;15.018;2022-10-16T07:12:07;4.71;;;4.58;;
23668;SDS011;12011;47.422;15.018;2022-10-16T07:14:36;4.98;;;4.86;;
23668;SDS011;12011;47.422;15.018;2022-10-16T07:17:08;4.98;;;4.83;;
23668;SDS011;12011;47.422;15.018;2022-10-16T07:19:38;5.06;;;4.92;;
23668;SDS011;12011;47.422;15.018;2022-10-16T07:22:07;5.05;;;4.96;;
23668;SDS011;12011;47.422;15.018;2022-10-16T07:24:37;5.66;;;5.54;;
23668;SDS011;12011;47.422;15.018;2022-10-16T07:27:06;4.94;;;4.84;;
23668;SDS011;12011;47.422;15.018;2022-10-16T07:29:36;5.03;;;4.94;;
23668;SDS011;12011;47.422;15.018;2022-10-16T07:32:08;5.58;;;5.49;;
23668;SDS011;12011;47.422;15.018;2022-10-16T07:34:38;5.87;;;5.75;;
23668;SDS011;12011;47.422;15.018;2022-10-16T07:37:07;5.29;;;5.18;;
23668;SDS011;12011;47.422;15.018;2022-10-16T07:39:37;4.76;;;4.64;;
23668;SDS011;12011;47.422;15.018;2022-10-16T07:42:06;5.15;;;5.06;;
23668;SDS011;12011;47.422;15.018;2022-10-16T07:44:36;5.68;;;5.57;;
23668;SDS011;12011;47.422;15.018;2022-10-16T07:47:08;5.17;;;5.00;;
23668;SDS011;12011;47.422;15.018;2022-10-16T07:49:38;5.14;;;4.93;;
23668;SDS011;12011;47.422;15.018;2022-10-16T07:52:08;5.57;;;5.40;;
23668;SDS011;12011;47.422;15.018;2022-10-16T07:54:37;5.33;;;5.19;;
23668;SDS011;12011;47.422;15.018;2022-10-16T07:57:07;5.79;;;5.67;;
23668;SDS011;12011;47.422;15.018;2022-10-16T07:59:36;5.46;;;5.38;;
23668;SDS011;12011;47.422;15.018;2022-10-16T08:02:09;5.62;;;5.55;;
23668;SDS011;12011;47.422;15.018;2022-10-16T08:04:39;5.65;;;5.57;;
23668;SDS011;12011;47.422;15.018;2022-10-16T08:07:08;5.42;;;5.36;;
23668;SDS011;12011;47.422;15.018;2022-10-16T08:09:38;5.40;;;5.29;;
23668;SDS011;12011;47.422;15.018;2022-10-16T08:12:07;5.65;;;5.56;;
23668;SDS011;12011;47.422;15.018;2022-10-16T08:14:37;5.92;;;5.87;;
23668;SDS011;12011;47.422;15.018;2022-10-16T08:17:09;5.89;;;5.83;;
23668;SDS011;12011;47.422;15.018;2022-10-16T08:19:38;5.90;;;5.82;;
23668;SDS011;12011;47.422;15.018;2022-10-16T08:22:08;5.89;;;5.84;;
23668;SDS011;12011;47.422;15.018;2022-10-16T08:24:37;6.69;;;6.57;;
23668;SDS011;12011;47.422;15.018;2022-10-16T08:27:07;6.18;;;6.08;;
23668;SDS011;12011;47.422;15.018;2022-10-16T08:29:37;5.79;;;5.68;;
23668;SDS011;12011;47.422;15.018;2022-10-16T08:32:09;6.22;;;6.15;;
23668;SDS011;12011;47.422;15.018;2022-10-16T08:34:39;5.79;;;5.74;;
23668;SDS011;12011;47.422;15.018;2022-10-16T08:37:09;5.88;;;5.82;;
23668;SDS011;12011;47.422;15.018;2022-10-16T08:39:39;5.76;;;5.73;;
23668;SDS011;12011;47.422;15.018;2022-10-16T08:42:21;5.36;;;5.27;;
23668;SDS011;12011;47.422;15.018;2022-10-16T08:45:15;5.93;;;5.87;;
23668;SDS011;12011;47.422;15.018;2022-10-16T08:48:04;5.37;;;5.31;;
23668;SDS011;12011;47.422;15.018;2022-10-16T08:50:48;6.47;;;6.43;;
23668;SDS011;12011;47.422;15.018;2022-10-16T08:53:22;5.34;;;5.31;;
23668;SDS011;12011;47.422;15.018;2022-10-16T08:55:58;6.04;;;5.99;;
23668;SDS011;12011;47.422;15.018;2022-10-16T08:58:28;5.59;;;5.49;;
23668;SDS011;12011;47.422;15.018;2022-10-16T09:01:00;5.79;;;5.73;;
23668;SDS011;12011;47.422;15.018;2022-10-16T09:03:39;5.80;;;5.77;;
23668;SDS011;12011;47.422;15.018;2022-10-16T09:06:50;5.69;;;5.66;;
23668;SDS011;12011;47.422;15.018;2022-10-16T09:09:30;6.02;;;6.00;;
23668;SDS011;12011;47.422;15.018;2022-10-16T09:12:23;5.65;;;5.63;;
23668;SDS011;12011;47.422;15.018;2022-10-16T09:15:03;6.17;;;6.10;;
23668;SDS011;12011;47.422;15.018;2022-10-16T09:17:53;5.33;;;5.27;;
23668;SDS011;12011;47.422;15.018;2022-10-16T09:20:35;5.33;;;5.30;;
23668;SDS011;12011;47.422;15.018;2022-10-16T09:23:16;5.58;;;5.56;;
23668;SDS011;12011;47.422;15.018;2022-10-16T09:25:49;5.93;;;5.87;;
23668;SDS011;12011;47.422;15.018;2022-10-16T09:28:19;5.73;;;5.68;;
23668;SDS011;12011;47.422;15.018;2022-10-16T09:30:49;5.65;;;5.59;;
23668;SDS011;12011;47.422;15.018;2022-10-16T09:33:22;6.11;;;6.02;;
23668;SDS011;12011;47.422;15.018;2022-10-16T09:36:00;5.65;;;5.57;;
23668;SDS011;12011;47.422;15.018;2022-10-16T09:38:35;5.52;;;5.43;;
23668;SDS011;12011;47.422;15.018;2022-10-16T09:41:12;5.54;;;5.47;;
23668;SDS011;12011;47.422;15.018;2022-10-16T09:43:47;5.37;;;5.34;;
23668;SDS011;12011;47.422;15.018;2022-10-16T09:46:26;5.81;;;5.80;;
23668;SDS011;12011;47.422;15.018;2022-10-16T09:48:58;5.51;;;5.50;;
23668;SDS011;12011;47.422;15.018;2022-10-16T09:51:33;5.79;;;5.77;;
23668;SDS011;12011;47.422;15.018;2022-10-16T09:54:12;5.55;;;5.51;;
23668;SDS011;12011;47.422;15.018;2022-10-16T09:56:44;6.36;;;6.34;;
23668;SDS011;12011;47.422;15.018;2022-10-16T09:59:17;6.08;;;6.05;;
23668;SDS011;12011;47.422;15.018;2022-10-16T10:01:49;6.20;;;6.16;;
23668;SDS011;12011;47.422;15.018;2022-10-16T10:04:26;6.06;;;6.05;;
23668;SDS011;12011;47.422;15.018;2022-10-16T10:07:19;5.91;;;5.87;;
23668;SDS011;12011;47.422;15.018;2022-10-16T10:09:55;6.11;;;6.08;;
23668;SDS011;12011;47.422;15.018;2022-10-16T10:12:27;5.68;;;5.64;;
23668;SDS011;12011;47.422;15.018;2022-10-16T10:15:03;5.35;;;5.33;;
23668;SDS011;12011;47.422;15.018;2022-10-16T10:17:45;4.52;;;4.52;;
23668;SDS011;12011;47.422;15.018;2022-10-16T10:20:24;4.83;;;4.83;;
23668;SDS011;12011;47.422;15.018;2022-10-16T10:23:01;4.40;;;4.40;;
23668;SDS011;12011;47.422;15.018;2022-10-16T10:25:50;4.20;;;4.20;;
23668;SDS011;12011;47.422;15.018;2022-10-16T10:28:42;3.76;;;3.76;;
23668;SDS011;12011;47.422;15.018;2022-10-16T10:31:25;4.25;;;4.25;;
23668;SDS011;12011;47.422;15.018;2022-10-16T10:34:05;4.14;;;4.14;;
23668;SDS011;12011;47.422;15.018;2022-10-16T10:37:02;3.61;;;3.61;;
23668;SDS011;12011;47.422;15.018;2022-10-16T10:39:56;3.69;;;3.69;;
23668;SDS011;12011;47.422;15.018;2022-10-16T10:42:38;3.59;;;3.59;;
23668;SDS011;12011;47.422;15.018;2022-10-16T10:45:22;3.66;;;3.66;;
23668;SDS011;12011;47.422;15.018;2022-10-16T10:47:59;3.64;;;3.64;;
23668;SDS011;12011;47.422;15.018;2022-10-16T10:50:54;3.82;;;3.82;;
23668;SDS011;12011;47.422;15.018;2022-10-16T10:53:35;3.68;;;3.68;;
23668;SDS011;12011;47.422;15.018;2022-10-16T10:56:25;3.82;;;3.82;;
23668;SDS011;12011;47.422;15.018;2022-10-16T11:02:52;3.59;;;3.59;;
23668;SDS011;12011;47.422;15.018;2022-10-16T11:05:40;3.66;;;3.66;;
23668;SDS011;12011;47.422;15.018;2022-10-16T11:08:22;3.73;;;3.73;;
23668;SDS011;12011;47.422;15.018;2022-10-16T11:11:07;3.45;;;3.45;;
23668;SDS011;12011;47.422;15.018;2022-10-16T11:14:10;3.58;;;3.58;;
23668;SDS011;12011;47.422;15.018;2022-10-16T11:16:54;3.68;;;3.68;;
23668;SDS011;12011;47.422;15.018;2022-10-16T11:19:48;3.11;;;3.11;;
23668;SDS011;12011;47.422;15.018;2022-10-16T11:22:26;3.34;;;3.34;;
23668;SDS011;12011;47.422;15.018;2022-10-16T11:25:06;3.56;;;3.56;;
23668;SDS011;12011;47.422;15.018;2022-10-16T11:27:50;3.52;;;3.52;;
23668;SDS011;12011;47.422;15.018;2022-10-16T11:30:27;3.05;;;3.05;;
23668;SDS011;12011;47.422;15.018;2022-10-16T11:33:04;3.39;;;3.39;;
23668;SDS011;12011;47.422;15.018;2022-10-16T11:35:59;3.45;;;3.45;;
23668;SDS011;12011;47.422;15.018;2022-10-16T11:38:38;3.47;;;3.47;;
23668;SDS011;12011;47.422;15.018;2022-10-16T11:41:22;3.46;;;3.46;;
23668;SDS011;12011;47.422;15.018;2022-10-16T11:44:03;3.85;;;3.85;;
23668;SDS011;12011;47.422;15.018;2022-10-16T11:46:50;3.36;;;3.36;;
23668;SDS011;12011;47.422;15.018;2022-10-16T11:49:32;3.43;;;3.42;;
23668;SDS011;12011;47.422;15.018;2022-10-16T11:52:06;3.54;;;3.54;;
23668;SDS011;12011;47.422;15.018;2022-10-16T11:54:49;3.29;;;3.29;;
23668;SDS011;12011;47.422;15.018;2022-10-16T11:57:27;3.41;;;3.41;;
23668;SDS011;12011;47.422;15.018;2022-10-16T12:00:14;3.24;;;3.24;;
23668;SDS011;12011;47.422;15.018;2022-10-16T12:02:55;3.19;;;3.19;;
23668;SDS011;12011;47.422;15.018;2022-10-16T12:05:39;3.16;;;3.16;;
23668;SDS011;12011;47.422;15.018;2022-10-16T12:08:30;3.62;;;3.60;;
23668;SDS011;12011;47.422;15.018;2022-10-16T12:11:32;3.42;;;3.42;;
23668;SDS011;12011;47.422;15.018;2022-10-16T12:14:21;3.61;;;3.61;;
23668;SDS011;12011;47.422;15.018;2022-10-16T12:17:46;3.68;;;3.68;;
23668;SDS011;12011;47.422;15.018;2022-10-16T12:20:36;3.69;;;3.69;;
23668;SDS011;12011;47.422;15.018;2022-10-16T12:23:28;3.37;;;3.37;;
23668;SDS011;12011;47.422;15.018;2022-10-16T12:26:25;3.39;;;3.39;;
23668;SDS011;12011;47.422;15.018;2022-10-16T12:29:33;3.92;;;3.92;;
23668;SDS011;12011;47.422;15.018;2022-10-16T12:32:32;3.88;;;3.88;;
23668;SDS011;12011;47.422;15.018;2022-10-16T12:39:16;4.72;;;4.71;;
23668;SDS011;12011;47.422;15.018;2022-10-16T12:42:32;4.32;;;4.28;;
23668;SDS011;12011;47.422;15.018;2022-10-16T12:45:33;4.07;;;4.06;;
23668;SDS011;12011;47.422;15.018;2022-10-16T12:48:19;4.21;;;4.21;;
23668;SDS011;12011;47.422;15.018;2022-10-16T12:55:03;5.22;;;5.21;;
23668;SDS011;12011;47.422;15.018;2022-10-16T12:58:15;4.47;;;4.46;;
23668;SDS011;12011;47.422;15.018;2022-10-16T13:01:07;4.08;;;4.04;;
23668;SDS011;12011;47.422;15.018;2022-10-16T13:07:15;4.23;;;4.22;;
23668;SDS011;12011;47.422;15.018;2022-10-16T13:10:10;3.96;;;3.95;;
23668;SDS011;12011;47.422;15.018;2022-10-16T13:13:04;4.33;;;4.31;;
23668;SDS011;12011;47.422;15.018;2022-10-16T13:16:03;4.73;;;4.68;;
23668;SDS011;12011;47.422;15.018;2022-10-16T13:18:46;4.40;;;4.35;;
23668;SDS011;12011;47.422;15.018;2022-10-16T13:21:34;4.51;;;4.49;;
23668;SDS011;12011;47.422;15.018;2022-10-16T13:24:20;4.28;;;4.28;;
23668;SDS011;12011;47.422;15.018;2022-10-16T13:27:12;4.17;;;4.17;;
23668;SDS011;12011;47.422;15.018;2022-10-16T13:30:00;4.58;;;4.58;;
23668;SDS011;12011;47.422;15.018;2022-10-16T13:32:39;4.55;;;4.54;;
23668;SDS011;12011;47.422;15.018;2022-10-16T13:35:18;4.51;;;4.48;;
23668;SDS011;12011;47.422;15.018;2022-10-16T13:37:50;4.16;;;4.14;;
23668;SDS011;12011;47.422;15.018;2022-10-16T13:40:31;4.35;;;4.34;;
23668;SDS011;12011;47.422;15.018;2022-10-16T13:43:03;4.01;;;4.01;;
23668;SDS011;12011;47.422;15.018;2022-10-16T13:45:33;4.37;;;4.36;;
23668;SDS011;12011;47.422;15.018;2022-10-16T13:48:03;4.15;;;4.11;;
23668;SDS011;12011;47.422;15.018;2022-10-16T13:50:37;4.43;;;4.41;;
23668;SDS011;12011;47.422;15.018;2022-10-16T13:53:09;3.91;;;3.89;;
23668;SDS011;12011;47.422;15.018;2022-10-16T13:55:43;3.93;;;3.91;;
23668;SDS011;12011;47.422;15.018;2022-10-16T13:58:15;4.19;;;4.17;;
23668;SDS011;12011;47.422;15.018;2022-10-16T14:00:52;3.83;;;3.81;;
23668;SDS011;12011;47.422;15.018;2022-10-16T14:03:25;4.11;;;4.08;;
23668;SDS011;12011;47.422;15.018;2022-10-16T14:05:57;4.81;;;4.81;;
23668;SDS011;12011;47.422;15.018;2022-10-16T14:08:30;3.68;;;3.68;;
23668;SDS011;12011;47.422;15.018;2022-10-16T14:11:01;4.22;;;4.19;;
23668;SDS011;12011;47.422;15.018;2022-10-16T14:13:36;3.99;;;3.98;;
23668;SDS011;12011;47.422;15.018;2022-10-16T14:16:10;4.11;;;4.10;;
23668;SDS011;12011;47.422;15.018;2022-10-16T14:18:49;4.57;;;4.52;;
23668;SDS011;12011;47.422;15.018;2022-10-16T14:21:26;4.15;;;4.13;;
23668;SDS011;12011;47.422;15.018;2022-10-16T14:23:57;4.24;;;4.23;;
23668;SDS011;12011;47.422;15.018;2022-10-16T14:26:27;4.13;;;4.11;;
23668;SDS011;12011;47.422;15.018;2022-10-16T14:29:08;4.54;;;4.51;;
23668;SDS011;12011;47.422;15.018;2022-10-16T14:31:42;4.45;;;4.42;;
23668;SDS011;12011;47.422;15.018;2022-10-16T14:34:27;4.65;;;4.60;;
23668;SDS011;12011;47.422;15.018;2022-10-16T14:37:02;4.09;;;4.05;;
23668;SDS011;12011;47.422;15.018;2022-10-16T14:39:42;4.17;;;4.14;;
23668;SDS011;12011;47.422;15.018;2022-10-16T14:42:18;3.46;;;3.44;;
23668;SDS011;12011;47.422;15.018;2022-10-16T14:44:55;3.28;;;3.27;;
23668;SDS011;12011;47.422;15.018;2022-10-16T14:47:25;3.26;;;3.26;;
23668;SDS011;12011;47.422;15.018;2022-10-16T14:49:55;2.91;;;2.91;;
23668;SDS011;12011;47.422;15.018;2022-10-16T14:52:25;2.77;;;2.77;;
23668;SDS011;12011;47.422;15.018;2022-10-16T14:54:54;2.97;;;2.97;;
23668;SDS011;12011;47.422;15.018;2022-10-16T14:57:25;3.14;;;3.14;;
23668;SDS011;12011;47.422;15.018;2022-10-16T15:00:02;3.56;;;3.56;;
23668;SDS011;12011;47.422;15.018;2022-10-16T15:02:39;2.89;;;2.89;;
23668;SDS011;12011;47.422;15.018;2022-10-16T15:05:11;3.13;;;3.12;;
23668;SDS011;12011;47.422;15.018;2022-10-16T15:07:45;3.21;;;3.20;;
23668;SDS011;12011;47.422;15.018;2022-10-16T15:10:15;2.85;;;2.84;;
23668;SDS011;12011;47.422;15.018;2022-10-16T15:12:46;2.90;;;2.88;;
23668;SDS011;12011;47.422;15.018;2022-10-16T15:18:14;3.38;;;3.36;;
23668;SDS011;12011;47.422;15.018;2022-10-16T15:20:47;3.40;;;3.39;;
23668;SDS011;12011;47.422;15.018;2022-10-16T15:23:20;2.99;;;2.99;;
23668;SDS011;12011;47.422;15.018;2022-10-16T15:25:51;2.86;;;2.85;;
23668;SDS011;12011;47.422;15.018;2022-10-16T15:28:24;3.11;;;3.10;;
23668;SDS011;12011;47.422;15.018;2022-10-16T15:30:57;2.75;;;2.74;;
23668;SDS011;12011;47.422;15.018;2022-10-16T15:33:27;3.00;;;2.98;;
23668;SDS011;12011;47.422;15.018;2022-10-16T15:35:59;2.86;;;2.85;;
23668;SDS011;12011;47.422;15.018;2022-10-16T15:38:40;2.42;;;2.42;;
23668;SDS011;12011;47.422;15.018;2022-10-16T15:41:50;2.75;;;2.75;;